createdAt,value
2022-09-05T00:02:15.568Z,4.50
2022-09-05T00:04:50.663Z,4.50
2022-09-05T00:07:34.406Z,5.50
2022-09-05T00:10:23.528Z,4.50
2022-09-05T00:13:07.738Z,5.30
2022-09-05T00:15:44.060Z,4.80
2022-09-05T00:24:11.037Z,5.53
2022-09-05T00:24:32.755Z,5.67
2022-09-05T00:25:06.885Z,5.70
2022-09-05T00:27:40.547Z,5.53
2022-09-05T00:31:07.968Z,4.97
2022-09-05T00:33:26.676Z,5.43
2022-09-05T00:36:14.374Z,4.90
2022-09-05T00:38:52.278Z,4.83
2022-09-05T00:41:20.000Z,6.07
2022-09-05T00:43:51.828Z,4.53
2022-09-05T00:46:26.199Z,5.10
2022-09-05T00:49:00.336Z,5.37
2022-09-05T00:51:36.557Z,5.37
2022-09-05T00:54:28.367Z,5.80
2022-09-05T00:57:30.509Z,5.87
2022-09-05T01:00:17.593Z,6.50
2022-09-05T01:03:31.300Z,5.00
2022-09-05T01:06:12.599Z,6.30
2022-09-05T01:08:52.717Z,5.70
2022-09-05T01:11:36.044Z,5.47
2022-09-05T01:14:21.476Z,5.60
2022-09-05T01:17:13.208Z,5.43
2022-09-05T01:19:54.935Z,5.97
2022-09-05T01:22:40.856Z,5.40
2022-09-05T01:25:26.941Z,4.77
2022-09-05T01:28:54.969Z,4.77
2022-09-05T01:30:56.498Z,5.40
2022-09-05T01:33:33.741Z,4.93
2022-09-05T01:36:33.680Z,5.20
2022-09-05T01:40:12.410Z,5.23
2022-09-05T01:41:58.365Z,5.10
2022-09-05T01:44:38.385Z,5.43
2022-09-05T01:47:26.700Z,5.07
2022-09-05T01:50:10.704Z,5.07
2022-09-05T01:53:03.041Z,5.13
2022-09-05T01:56:03.897Z,4.70
2022-09-05T01:58:48.743Z,5.17
2022-09-05T02:01:32.256Z,4.37
2022-09-05T02:04:21.204Z,4.20
2022-09-05T02:06:57.009Z,4.57
2022-09-05T02:10:08.587Z,4.27
2022-09-05T02:12:44.857Z,4.93
2022-09-05T02:15:41.045Z,4.90
2022-09-05T02:18:19.139Z,4.67
2022-09-05T02:20:52.384Z,4.80
2022-09-05T02:23:40.689Z,5.10
2022-09-05T02:26:18.522Z,5.00
2022-09-05T02:28:53.868Z,4.50
2022-09-05T02:31:28.213Z,4.57
2022-09-05T02:34:02.063Z,5.03
2022-09-05T02:36:38.058Z,4.40
2022-09-05T02:45:07.477Z,4.37
2022-09-05T02:45:14.494Z,4.80
2022-09-05T02:45:28.087Z,4.07
2022-09-05T02:48:15.617Z,4.23
2022-09-05T02:54:37.256Z,4.03
2022-09-05T02:57:33.267Z,4.00
2022-09-05T02:57:42.486Z,4.50
2022-09-05T03:00:12.024Z,4.10
2022-09-05T03:03:06.463Z,3.70
2022-09-05T03:05:39.778Z,4.10
2022-09-05T03:08:27.736Z,5.07
2022-09-05T03:11:28.668Z,4.53
2022-09-05T03:14:32.176Z,4.30
2022-09-05T03:17:30.782Z,3.80
2022-09-05T03:20:32.554Z,3.67
2022-09-05T03:23:39.627Z,4.13
2022-09-05T03:26:42.678Z,4.63
2022-09-05T03:29:58.556Z,4.37
2022-09-05T03:32:53.373Z,3.77
2022-09-05T03:36:23.367Z,4.03
2022-09-05T03:39:25.854Z,3.60
2022-09-05T03:42:14.752Z,3.40
2022-09-05T03:45:12.138Z,4.30
2022-09-05T03:48:14.933Z,4.17
2022-09-05T03:54:29.334Z,3.80
2022-09-05T03:57:17.964Z,4.40
2022-09-05T03:57:42.550Z,3.80
2022-09-05T04:00:21.522Z,3.60
2022-09-05T04:06:05.235Z,4.20
2022-09-05T04:08:13.867Z,3.57
2022-09-05T04:08:55.121Z,4.03
2022-09-05T04:11:35.560Z,3.60
2022-09-05T04:14:08.168Z,4.23
2022-09-05T04:16:49.517Z,3.57
2022-09-05T04:19:25.507Z,4.87
2022-09-05T04:22:01.023Z,4.00
2022-09-05T04:24:37.539Z,3.90
2022-09-05T04:27:26.386Z,4.60
2022-09-05T04:30:00.489Z,4.20
2022-09-05T04:32:54.200Z,5.03
2022-09-05T04:35:30.012Z,4.73
2022-09-05T04:38:06.048Z,4.13
2022-09-05T04:40:43.708Z,4.73
2022-09-05T04:43:21.757Z,4.07
2022-09-05T04:45:54.384Z,4.33
2022-09-05T04:48:27.658Z,4.77
2022-09-05T04:51:12.897Z,4.40
2022-09-05T04:54:15.706Z,4.50
2022-09-05T04:56:47.096Z,4.07
2022-09-05T05:01:18.710Z,4.00
2022-09-05T05:06:14.659Z,4.80
2022-09-05T05:06:14.661Z,5.17
2022-09-05T05:08:13.229Z,5.23
2022-09-05T05:15:13.900Z,4.00
2022-09-05T05:17:57.139Z,6.43
2022-09-05T05:18:11.663Z,6.37
2022-09-05T05:19:22.208Z,6.50
2022-09-05T05:21:53.119Z,6.77
2022-09-05T05:24:26.215Z,5.90
2022-09-05T05:27:02.723Z,5.90
2022-09-05T05:29:39.648Z,4.50
2022-09-05T05:32:08.987Z,4.73
2022-09-05T05:34:43.438Z,4.47
2022-09-05T05:37:19.465Z,4.40
2022-09-05T05:39:52.539Z,3.70
2022-09-05T05:42:24.319Z,4.20
2022-09-05T05:44:54.711Z,3.70
2022-09-05T05:47:31.602Z,3.80
2022-09-05T05:50:11.564Z,3.50
2022-09-05T05:53:06.739Z,3.90
2022-09-05T05:55:54.355Z,3.70
2022-09-05T05:58:47.148Z,3.60
2022-09-05T06:01:45.889Z,3.70
2022-09-05T06:05:05.213Z,3.33
2022-09-05T06:08:27.545Z,3.03
2022-09-05T06:14:56.460Z,2.33
2022-09-05T06:15:05.700Z,2.40
2022-09-05T06:17:58.362Z,3.40
2022-09-05T06:22:08.689Z,2.90
2022-09-05T06:24:06.011Z,2.40
2022-09-05T06:27:00.562Z,2.57
2022-09-05T06:29:48.229Z,4.03
2022-09-05T06:32:30.907Z,3.20
2022-09-05T06:35:21.606Z,3.40
2022-09-05T06:38:03.615Z,2.97
2022-09-05T06:40:37.580Z,3.07
2022-09-05T06:43:13.291Z,2.83
2022-09-05T06:45:58.928Z,2.60
2022-09-05T06:48:45.586Z,2.80
2022-09-05T06:52:29.047Z,2.27
2022-09-05T06:55:19.113Z,2.80
2022-09-05T06:58:19.326Z,2.50
2022-09-05T07:00:57.639Z,2.63
2022-09-05T07:03:37.861Z,3.00
2022-09-05T07:06:09.818Z,2.50
2022-09-05T07:08:53.878Z,3.80
2022-09-05T07:11:25.166Z,2.93
2022-09-05T07:14:01.495Z,2.60
2022-09-05T07:16:47.539Z,2.60
2022-09-05T07:19:26.673Z,3.03
2022-09-05T07:22:47.431Z,2.23
2022-09-05T07:25:18.306Z,2.20
2022-09-05T07:28:29.607Z,2.60
2022-09-05T07:30:48.827Z,2.60
2022-09-05T07:33:21.293Z,2.90
2022-09-05T07:35:52.325Z,2.70
2022-09-05T07:38:26.721Z,2.10
2022-09-05T07:41:13.916Z,2.47
2022-09-05T07:43:46.222Z,2.70
2022-09-05T07:46:17.041Z,2.13
2022-09-05T07:48:52.297Z,2.00
2022-09-05T07:56:53.914Z,3.20
2022-09-05T07:57:10.575Z,2.50
2022-09-05T07:57:30.627Z,2.57
2022-09-05T08:00:06.798Z,2.23
2022-09-05T08:02:46.959Z,1.93
2022-09-05T08:05:26.079Z,2.00
2022-09-05T08:08:08.719Z,1.97
2022-09-05T08:11:23.967Z,2.43
2022-09-05T08:13:49.493Z,2.40
2022-09-05T08:16:21.906Z,1.80
2022-09-05T08:18:55.670Z,2.00
2022-09-05T08:21:29.405Z,2.10
2022-09-05T08:24:12.938Z,2.13
2022-09-05T08:26:47.345Z,1.83
2022-09-05T08:29:27.428Z,2.00
2022-09-05T08:32:02.131Z,1.90
2022-09-05T08:34:45.158Z,3.00
2022-09-05T08:37:21.518Z,1.80
2022-09-05T08:39:58.331Z,2.07
2022-09-05T08:43:36.636Z,1.73
2022-09-05T08:46:40.816Z,2.00
2022-09-05T08:48:45.565Z,1.90
2022-09-05T08:51:29.938Z,1.80
2022-09-05T08:54:32.791Z,2.03
2022-09-05T08:57:09.803Z,2.47
2022-09-05T09:00:18.701Z,2.30
2022-09-05T09:03:04.322Z,2.07
2022-09-05T09:06:14.161Z,2.03
2022-09-05T09:09:14.341Z,1.90
2022-09-05T09:11:52.386Z,2.00
2022-09-05T09:14:36.412Z,2.33
2022-09-05T09:17:26.192Z,1.73
2022-09-05T09:20:12.580Z,1.50
2022-09-05T09:22:44.987Z,1.97
2022-09-05T09:25:18.439Z,2.03
2022-09-05T09:28:50.590Z,2.07
2022-09-05T09:30:59.073Z,2.07
2022-09-05T09:33:37.787Z,1.83
2022-09-05T09:36:16.367Z,1.97
2022-09-05T09:39:08.485Z,2.10
2022-09-05T09:42:08.576Z,1.70
2022-09-05T09:45:28.459Z,1.87
2022-09-05T09:48:33.083Z,1.57
2022-09-05T09:51:13.047Z,1.80
2022-09-05T09:53:57.868Z,1.70
2022-09-05T09:56:52.309Z,1.90
2022-09-05T09:59:31.414Z,1.87
2022-09-05T10:06:35.184Z,2.10
2022-09-05T10:10:39.331Z,1.90
2022-09-05T10:10:53.209Z,1.90
2022-09-05T10:11:54.834Z,1.57
2022-09-05T10:15:00.282Z,1.40
2022-09-05T10:18:15.488Z,1.40
2022-09-05T10:21:24.463Z,1.90
2022-09-05T10:24:21.217Z,1.90
2022-09-05T10:27:19.745Z,1.93
2022-09-05T10:30:06.192Z,2.20
2022-09-05T10:35:17.697Z,1.70
2022-09-05T10:35:37.437Z,1.77
2022-09-05T10:38:11.215Z,1.50
2022-09-05T10:41:20.447Z,1.70
2022-09-05T10:43:31.518Z,2.10
2022-09-05T10:46:06.986Z,1.63
2022-09-05T10:48:44.233Z,1.57
2022-09-05T10:51:27.942Z,2.00
2022-09-05T10:54:11.489Z,2.10
2022-09-05T10:56:43.604Z,1.80
2022-09-05T11:02:16.294Z,1.57
2022-09-05T11:02:25.902Z,1.63
2022-09-05T11:05:09.859Z,1.40
2022-09-05T11:07:48.780Z,1.90
2022-09-05T11:10:22.065Z,1.57
2022-09-05T11:13:10.710Z,1.80
2022-09-05T11:16:04.499Z,2.20
2022-09-05T11:18:55.089Z,1.83
2022-09-05T11:21:31.504Z,1.70
2022-09-05T11:24:09.518Z,1.80
2022-09-05T11:26:43.235Z,1.80
2022-09-05T11:29:19.094Z,1.70
2022-09-05T11:32:23.829Z,1.87
2022-09-05T11:39:48.425Z,1.90
2022-09-05T11:40:02.213Z,1.80
2022-09-05T11:41:56.441Z,1.67
2022-09-05T11:44:35.615Z,1.87
2022-09-05T11:47:44.409Z,1.53
2022-09-05T11:50:50.700Z,2.00
2022-09-05T11:53:54.187Z,1.77
2022-09-05T11:57:07.789Z,1.80
2022-09-05T12:00:33.430Z,1.67
2022-09-05T12:03:57.389Z,1.70
2022-09-05T12:06:47.795Z,1.60
2022-09-05T12:09:27.953Z,2.10
2022-09-05T12:12:34.144Z,2.87
2022-09-05T12:15:12.693Z,1.97
2022-09-05T12:17:50.980Z,1.80
2022-09-05T12:20:23.266Z,1.60
2022-09-05T12:22:57.787Z,2.07
2022-09-05T12:27:40.841Z,1.70
2022-09-05T12:29:26.735Z,1.83
2022-09-05T12:33:10.120Z,1.80
2022-09-05T12:36:07.609Z,2.43
2022-09-05T12:40:57.820Z,1.80
2022-09-05T12:41:34.650Z,1.77
2022-09-05T12:43:52.951Z,1.63
2022-09-05T12:48:39.129Z,1.83
2022-09-05T12:51:11.872Z,1.57
2022-09-05T12:54:04.116Z,1.60
2022-09-05T13:01:17.432Z,1.73
2022-09-05T13:03:01.752Z,1.50
2022-09-05T13:03:09.380Z,1.60
2022-09-05T13:05:49.390Z,1.77
2022-09-05T13:08:21.030Z,1.87
2022-09-05T13:12:16.340Z,1.87
2022-09-05T13:14:54.431Z,1.60
2022-09-05T13:16:41.244Z,1.80
2022-09-05T13:19:24.167Z,1.60
2022-09-05T13:21:57.327Z,2.00
2022-09-05T13:24:30.659Z,1.43
2022-09-05T13:27:07.655Z,2.07
2022-09-05T13:31:51.052Z,1.50
2022-09-05T13:37:59.418Z,1.90
2022-09-05T13:38:06.055Z,1.73
2022-09-05T13:38:49.314Z,1.50
2022-09-05T13:41:26.931Z,1.87
2022-09-05T13:44:25.168Z,1.50
2022-09-05T13:46:58.327Z,1.93
2022-09-05T13:49:33.252Z,11.67
2022-09-05T13:52:27.885Z,4.77
2022-09-05T13:55:09.985Z,1.60
2022-09-05T13:57:42.765Z,1.67
2022-09-05T14:01:17.578Z,1.80
2022-09-05T14:08:00.579Z,1.80
2022-09-05T14:10:54.937Z,2.23
2022-09-05T14:13:27.370Z,1.40
2022-09-05T14:15:59.137Z,1.50
2022-09-05T14:18:30.139Z,1.97
2022-09-05T14:21:18.129Z,1.77
2022-09-05T14:23:53.645Z,1.80
2022-09-05T14:26:29.159Z,1.90
2022-09-05T14:29:07.046Z,1.80
2022-09-05T14:37:46.137Z,1.77
2022-09-05T14:38:00.827Z,1.47
2022-09-05T14:38:04.347Z,1.37
2022-09-05T14:41:08.758Z,1.87
2022-09-05T14:43:59.043Z,2.03
2022-09-05T14:46:51.026Z,2.30
2022-09-05T14:49:43.340Z,1.90
2022-09-05T14:52:16.215Z,1.73
2022-09-05T15:02:38.684Z,1.77
2022-09-05T15:02:53.850Z,1.77
2022-09-05T15:03:15.338Z,1.63
2022-09-05T15:05:50.086Z,1.80
2022-09-05T15:11:23.946Z,1.60
2022-09-05T15:12:17.100Z,1.97
2022-09-05T15:14:03.416Z,1.90
2022-09-05T15:16:35.471Z,1.87
2022-09-05T15:19:03.258Z,1.47
2022-09-05T15:21:35.403Z,1.90
2022-09-05T15:24:17.074Z,1.70
2022-09-05T15:26:53.011Z,1.90
2022-09-05T15:29:24.961Z,1.53
2022-09-05T15:32:09.086Z,1.50
2022-09-05T15:34:38.999Z,1.53
2022-09-05T15:37:23.371Z,2.00
2022-09-05T15:40:02.353Z,1.83
2022-09-05T15:42:32.578Z,1.80
2022-09-05T15:45:10.903Z,1.87
2022-09-05T15:47:47.303Z,1.70
2022-09-05T15:50:22.680Z,1.63
2022-09-05T15:52:55.620Z,2.17
2022-09-05T15:55:25.957Z,1.80
2022-09-05T15:57:57.403Z,1.73
2022-09-05T16:00:51.257Z,1.53
2022-09-05T16:07:59.842Z,2.20
2022-09-05T16:10:34.515Z,1.90
2022-09-05T16:10:44.797Z,2.03
2022-09-05T16:12:30.666Z,1.70
2022-09-05T16:15:55.245Z,1.93
2022-09-05T16:23:17.781Z,1.97
2022-09-05T16:23:34.960Z,2.23
2022-09-05T16:23:41.437Z,1.83
2022-09-05T16:26:25.122Z,1.80
2022-09-05T16:28:58.844Z,2.00
2022-09-05T16:31:35.718Z,1.80
2022-09-05T16:34:08.465Z,1.73
2022-09-05T16:37:02.435Z,2.00
2022-09-05T16:39:39.910Z,1.97
2022-09-05T16:42:15.944Z,2.80
2022-09-05T16:44:50.921Z,2.50
2022-09-05T16:47:25.472Z,2.57
2022-09-05T16:50:01.812Z,3.13
2022-09-05T16:52:38.193Z,2.67
2022-09-05T16:55:27.125Z,3.07
2022-09-05T16:58:03.475Z,3.00
2022-09-05T17:00:54.202Z,3.50
2022-09-05T17:03:28.270Z,3.70
2022-09-05T17:06:07.583Z,3.03
2022-09-05T17:08:37.276Z,4.57
2022-09-05T17:11:12.386Z,4.30
2022-09-05T17:13:58.159Z,4.30
2022-09-05T17:16:32.204Z,3.03
2022-09-05T17:19:02.613Z,3.33
2022-09-05T17:25:05.411Z,3.93
2022-09-05T17:29:19.513Z,3.03
2022-09-05T17:29:47.409Z,4.00
2022-09-05T17:32:56.105Z,2.73
2022-09-05T17:35:42.348Z,2.87
2022-09-05T17:38:38.144Z,2.63
2022-09-05T17:41:43.115Z,2.00
2022-09-05T17:44:19.363Z,2.30
2022-09-05T17:47:01.780Z,1.83
2022-09-05T17:49:42.827Z,2.30
2022-09-05T17:52:25.329Z,2.57
2022-09-05T17:54:54.724Z,2.40
2022-09-05T17:57:35.633Z,2.20
2022-09-05T18:00:45.417Z,2.43
2022-09-05T18:04:16.857Z,2.10
2022-09-05T18:06:58.950Z,3.20
2022-09-05T18:10:11.867Z,2.60
2022-09-05T18:16:18.303Z,2.60
2022-09-05T18:19:27.983Z,2.53
2022-09-05T18:21:49.675Z,2.90
2022-09-05T18:24:33.280Z,2.80
2022-09-05T18:30:07.394Z,3.20
2022-09-05T18:32:41.284Z,3.40
2022-09-05T18:35:26.643Z,3.87
2022-09-05T18:38:29.723Z,3.50
2022-09-05T18:41:19.399Z,3.60
2022-09-05T18:44:12.421Z,4.60
2022-09-05T18:46:46.849Z,6.20
2022-09-05T18:50:25.964Z,5.60
2022-09-05T18:52:15.766Z,6.20
2022-09-05T18:54:50.387Z,6.30
2022-09-05T18:57:38.413Z,7.00
2022-09-05T19:00:09.952Z,6.20
2022-09-05T19:02:51.293Z,6.77
2022-09-05T19:05:39.624Z,5.97
2022-09-05T19:08:31.982Z,5.27
2022-09-05T19:11:27.457Z,5.20
2022-09-05T19:13:57.892Z,5.00
2022-09-05T19:16:47.213Z,4.83
2022-09-05T19:19:19.396Z,4.90
2022-09-05T19:22:05.523Z,4.63
2022-09-05T19:24:45.773Z,4.90
2022-09-05T19:28:26.327Z,4.97
2022-09-05T19:36:46.237Z,5.17
2022-09-05T19:36:47.359Z,4.70
2022-09-05T19:37:12.863Z,5.00
2022-09-05T19:39:49.344Z,4.93
2022-09-05T19:47:29.079Z,4.20
2022-09-05T19:47:37.190Z,4.50
2022-09-05T19:47:38.915Z,4.70
2022-09-05T19:50:11.305Z,4.60
2022-09-05T19:52:40.628Z,4.53
2022-09-05T19:55:21.695Z,3.70
2022-09-05T19:57:59.674Z,4.67
2022-09-05T20:00:41.829Z,4.87
2022-09-05T20:03:20.986Z,4.50
2022-09-05T20:05:51.398Z,3.97
2022-09-05T20:08:32.778Z,3.70
2022-09-05T20:11:05.134Z,3.83
2022-09-05T20:13:33.476Z,4.10
2022-09-05T20:16:02.091Z,3.80
2022-09-05T20:18:37.559Z,3.57
2022-09-05T20:21:10.002Z,3.53
2022-09-05T20:23:42.509Z,3.77
2022-09-05T20:26:11.695Z,3.40
2022-09-05T20:28:41.923Z,4.70
2022-09-05T20:31:15.970Z,3.93
2022-09-05T20:33:48.518Z,4.00
2022-09-05T20:43:07.644Z,5.10
2022-09-05T20:43:23.467Z,3.97
2022-09-05T20:43:32.444Z,3.70
2022-09-05T20:44:55.462Z,3.97
2022-09-05T20:54:09.827Z,3.27
2022-09-05T20:54:13.818Z,3.33
2022-09-05T20:54:19.241Z,3.33
2022-09-05T20:56:20.353Z,3.70
2022-09-05T20:58:51.086Z,3.40
2022-09-05T21:01:23.297Z,3.30
2022-09-05T21:03:57.085Z,3.10
2022-09-05T21:06:27.536Z,3.60
2022-09-05T21:09:07.923Z,3.57
2022-09-05T21:11:37.021Z,3.50
2022-09-05T21:14:06.000Z,3.40
2022-09-05T21:16:36.374Z,3.37
2022-09-05T21:19:04.162Z,3.50
2022-09-05T21:21:33.446Z,3.93
2022-09-05T21:24:15.806Z,3.97
2022-09-05T21:26:49.098Z,4.10
2022-09-05T21:29:27.436Z,2.90
2022-09-05T21:32:01.668Z,4.10
2022-09-05T21:34:33.192Z,3.67
2022-09-05T21:37:07.417Z,3.67
2022-09-05T21:39:40.089Z,3.67
2022-09-05T21:43:04.975Z,3.30
2022-09-05T21:47:43.540Z,3.23
2022-09-05T21:47:53.829Z,3.63
2022-09-05T21:50:31.327Z,3.67
2022-09-05T21:54:28.173Z,3.80
2022-09-05T21:59:22.088Z,14.70
2022-09-05T21:59:26.794Z,13.43
2022-09-05T22:01:37.523Z,14.30
2022-09-05T22:04:17.431Z,4.80
2022-09-05T22:06:48.575Z,4.10
2022-09-05T22:09:18.766Z,3.53
2022-09-05T22:11:50.436Z,3.50
2022-09-05T22:14:20.951Z,3.07
2022-09-05T22:16:50.351Z,3.50
2022-09-05T22:19:22.687Z,3.73
2022-09-05T22:21:52.681Z,3.93
2022-09-05T22:24:20.424Z,3.23
2022-09-05T22:27:10.766Z,3.67
2022-09-05T22:29:42.984Z,3.23
2022-09-05T22:32:15.732Z,3.90
2022-09-05T22:34:43.380Z,3.67
2022-09-05T22:37:11.636Z,3.43
2022-09-05T22:39:39.320Z,3.67
2022-09-05T22:42:10.587Z,3.43
2022-09-05T22:44:39.938Z,3.47
2022-09-05T22:47:09.747Z,3.80
2022-09-05T22:49:38.063Z,3.93
2022-09-05T22:52:06.452Z,3.93
2022-09-05T22:54:34.261Z,3.40
2022-09-05T22:57:02.302Z,2.83
2022-09-05T22:59:29.985Z,3.60
2022-09-05T23:01:57.740Z,4.00
2022-09-05T23:04:26.891Z,3.30
2022-09-05T23:06:54.632Z,3.80
2022-09-05T23:09:22.346Z,3.23
2022-09-05T23:11:49.960Z,3.43
2022-09-05T23:14:17.612Z,3.60
2022-09-05T23:16:45.403Z,2.80
2022-09-05T23:19:13.019Z,3.63
2022-09-05T23:21:42.010Z,3.23
2022-09-05T23:24:09.612Z,3.07
2022-09-05T23:26:37.233Z,3.10
2022-09-05T23:29:04.902Z,3.13
2022-09-05T23:31:32.554Z,3.40
2022-09-05T23:34:00.274Z,3.23
2022-09-05T23:36:27.965Z,3.33
2022-09-05T23:38:58.329Z,3.00
2022-09-05T23:41:26.179Z,3.27
2022-09-05T23:43:53.816Z,2.60
2022-09-05T23:46:21.501Z,3.57
2022-09-05T23:48:49.149Z,3.10
2022-09-05T23:51:16.780Z,3.67
2022-09-05T23:53:45.978Z,3.00
2022-09-05T23:56:14.994Z,2.93
2022-09-05T23:58:42.598Z,3.20
